Time;durP1;ratioP1;P1;durP2;ratioP2;P2;SDS_P1;SDS_P2;PMS_P1;PMS_P2;Temp;Humidity;BMP_temperature;BMP_pressure;BME280_temperature;BME280_humidity;BME280_pressure;Samples;Min_cycle;Max_cycle;Signal;HPM_P1;HPM_P2
2022/11/08 00:03:08;;;;;;;31.90;18.73;;;;;;;7.35;100.00;98993.31;2155069;83;21072;-80
2022/11/08 00:16:05;;;;;;;;;;;;;;;7.21;100.00;98996.45;2158780;83;21055;-81
2022/11/08 00:19:06;;;;;;;34.13;17.95;;;;;;;7.20;100.00;99000.03;2155129;83;20429;-81
2022/11/08 00:22:07;;;;;;;32.50;18.95;;;;;;;7.19;100.00;98995.80;2155286;83;20957;-81
2022/11/08 00:25:08;;;;;;;33.65;18.40;;;;;;;7.19;100.00;99005.73;2155373;83;21004;-77
2022/11/08 00:28:08;;;;;;;29.70;17.60;;;;;;;7.17;100.00;99001.16;2156760;82;21076;-82
2022/11/08 00:31:09;;;;;;;26.45;17.27;;;;;;;7.18;100.00;98997.58;2175674;82;21008;-81
2022/11/08 00:34:10;;;;;;;26.20;17.10;;;;;;;7.17;100.00;98993.83;2177962;82;20996;-80
2022/11/08 00:37:10;;;;;;;27.65;16.93;;;;;;;7.19;100.00;98997.91;2178086;82;20948;-81
2022/11/08 00:40:11;;;;;;;26.70;17.52;;;;;;;7.24;100.00;98999.59;2178039;82;21012;-81
2022/11/08 00:43:12;;;;;;;29.55;18.25;;;;;;;7.26;100.00;98991.14;2177923;82;20980;-81
2022/11/08 00:46:13;;;;;;;30.12;17.57;;;;;;;7.29;100.00;98988.22;2177797;82;20973;-81
2022/11/08 00:49:13;;;;;;;29.05;18.17;;;;;;;7.31;100.00;98994.58;2177681;82;21512;-82
2022/11/08 00:52:14;;;;;;;27.60;18.27;;;;;;;7.33;100.00;98993.47;2177807;82;20992;-82
2022/11/08 00:55:15;;;;;;;30.15;20.05;;;;;;;7.30;100.00;98998.15;2177984;82;21001;-82
2022/11/08 00:58:16;;;;;;;32.42;18.65;;;;;;;7.28;100.00;98993.58;2177829;82;21032;-81
2022/11/08 01:01:16;;;;;;;32.95;20.00;;;;;;;7.23;100.00;98994.05;2177940;82;21504;-81
2022/11/08 01:04:17;;;;;;;34.58;20.68;;;;;;;7.21;100.00;98997.75;2178265;82;21040;-83
2022/11/08 01:07:18;;;;;;;37.13;20.50;;;;;;;7.19;100.00;98993.19;2177846;82;20991;-81
2022/11/08 01:10:19;;;;;;;31.45;19.98;;;;;;;7.11;100.00;98992.15;2178005;82;20957;-82
2022/11/08 01:13:19;;;;;;;33.50;19.92;;;;;;;7.08;100.00;98989.04;2177766;82;21032;-81
2022/11/08 01:16:20;;;;;;;38.40;22.10;;;;;;;7.07;100.00;98987.41;2177783;82;20957;-81
2022/11/08 01:19:21;;;;;;;31.93;20.20;;;;;;;7.04;100.00;98980.72;2178038;82;21432;-81
2022/11/08 01:22:22;;;;;;;36.33;21.20;;;;;;;7.02;100.00;98976.61;2177898;82;20996;-81
2022/11/08 01:25:22;;;;;;;30.88;20.45;;;;;;;6.99;100.00;98975.13;2177825;82;20977;-81
2022/11/08 01:28:23;;;;;;;36.60;20.70;;;;;;;6.96;100.00;98980.66;2181505;81;21028;-81
2022/11/08 01:31:24;;;;;;;31.90;20.43;;;;;;;6.95;100.00;98980.77;2184759;81;20992;-81
2022/11/08 01:34:25;;;;;;;30.27;20.02;;;;;;;6.93;100.00;98982.72;2184732;81;20941;-81
2022/11/08 01:37:25;;;;;;;31.60;18.85;;;;;;;6.91;100.00;98981.57;2184863;81;21019;-81
2022/11/08 01:40:26;;;;;;;33.00;20.23;;;;;;;6.91;100.00;98984.17;2184789;81;20992;-81
2022/11/08 01:43:27;;;;;;;35.23;20.08;;;;;;;6.91;100.00;98978.15;2184979;81;20957;-81
2022/11/08 01:46:28;;;;;;;36.80;21.23;;;;;;;6.92;100.00;98981.09;2184793;81;21032;-82
2022/11/08 01:49:29;;;;;;;34.05;21.62;;;;;;;6.92;100.00;98981.09;2184501;81;21079;-81
2022/11/08 01:52:29;;;;;;;38.23;21.42;;;;;;;6.92;100.00;98980.60;2185032;81;20961;-82
2022/11/08 01:55:30;;;;;;;33.60;22.45;;;;;;;6.92;100.00;98983.20;2185211;81;20984;-80
2022/11/08 01:58:31;;;;;;;32.78;22.05;;;;;;;6.89;100.00;98981.39;2184969;81;21439;-82
2022/11/08 02:01:32;;;;;;;33.70;21.50;;;;;;;6.91;100.00;98984.17;2185258;81;20976;-81
2022/11/08 02:04:32;;;;;;;28.80;19.48;;;;;;;6.93;100.00;98985.32;2184758;81;20996;-82
2022/11/08 02:07:33;;;;;;;31.65;19.82;;;;;;;6.92;100.00;98982.39;2184721;81;20937;-82
2022/11/08 02:10:34;;;;;;;33.18;20.35;;;;;;;6.91;100.00;98979.45;2185272;81;21027;-81
2022/11/08 02:13:35;;;;;;;30.55;18.95;;;;;;;6.90;100.00;98982.54;2186461;81;20945;-82
2022/11/08 02:16:36;;;;;;;31.10;20.37;;;;;;;6.89;100.00;98980.91;2185349;81;20988;-81
2022/11/08 02:19:36;;;;;;;30.37;19.52;;;;;;;6.87;100.00;98969.02;2184746;81;21001;-81
2022/11/08 02:22:37;;;;;;;27.75;17.98;;;;;;;6.91;100.00;98971.64;2185018;81;21400;-81
2022/11/08 02:25:38;;;;;;;29.75;19.37;;;;;;;6.92;100.00;98974.09;2185192;81;21016;-77
2022/11/08 02:28:39;;;;;;;33.15;19.65;;;;;;;6.92;100.00;98970.67;2181939;81;21004;-83
2022/11/08 02:31:39;;;;;;;30.48;19.55;;;;;;;6.92;100.00;98971.97;2178091;82;21016;-81
2022/11/08 02:34:40;;;;;;;33.78;19.52;;;;;;;6.93;100.00;98969.70;2177983;82;20969;-81
2022/11/08 02:37:41;;;;;;;30.10;18.15;;;;;;;6.92;100.00;98970.19;2177857;82;20918;-81
2022/11/08 02:40:42;;;;;;;28.20;19.70;;;;;;;6.91;100.00;98967.73;2178061;82;20961;-81
2022/11/08 02:43:42;;;;;;;28.87;18.80;;;;;;;6.92;100.00;98971.97;2177829;82;20992;-81
2022/11/08 02:46:43;;;;;;;30.30;17.50;;;;;;;6.91;100.00;98966.44;2177919;82;20953;-81
2022/11/08 02:49:44;;;;;;;29.40;19.20;;;;;;;6.82;100.00;98963.77;2177666;82;21004;-82
2022/11/08 02:52:45;;;;;;;27.10;19.73;;;;;;;6.75;100.00;98965.80;2177921;82;20969;-81
2022/11/08 02:55:45;;;;;;;31.37;19.07;;;;;;;6.70;100.00;98964.14;2177969;82;21027;-81
2022/11/08 02:58:46;;;;;;;31.27;20.57;;;;;;;6.59;100.00;98964.37;2177886;82;21047;-82
2022/11/08 03:01:47;;;;;;;30.20;18.98;;;;;;;6.50;100.00;98969.97;2177927;82;21496;-81
2022/11/08 03:04:48;;;;;;;31.05;19.85;;;;;;;6.38;100.00;98968.05;2178019;82;21039;-81
2022/11/08 03:07:49;;;;;;;30.27;19.02;;;;;;;6.29;100.00;98974.13;2177788;82;20983;-81
2022/11/08 03:10:49;;;;;;;31.50;19.80;;;;;;;6.26;100.00;98980.92;2177930;82;21012;-82
2022/11/08 03:13:50;;;;;;;35.30;19.35;;;;;;;6.20;100.00;98979.71;2177910;82;21012;-81
2022/11/08 03:16:51;;;;;;;32.23;20.82;;;;;;;6.18;100.00;98982.94;2177848;82;20957;-81
2022/11/08 03:19:52;;;;;;;29.87;19.92;;;;;;;6.12;100.00;98978.80;2177803;82;21055;-81
2022/11/08 03:22:53;;;;;;;32.65;20.57;;;;;;;6.10;100.00;98987.23;2177695;82;21405;-81
2022/11/08 03:25:54;;;;;;;29.25;19.42;;;;;;;6.07;100.00;98992.24;2177731;82;21076;-80
2022/11/08 03:28:55;;;;;;;35.70;21.40;;;;;;;6.03;100.00;98986.98;2177482;81;21016;-82
2022/11/08 03:31:56;;;;;;;38.58;21.40;;;;;;;5.99;100.00;98984.34;2177368;82;21051;-81
2022/11/08 03:34:58;;;;;;;36.60;22.35;;;;;;;5.97;100.00;98984.48;2177823;82;20989;-82
2022/11/08 03:37:59;;;;;;;37.05;22.20;;;;;;;5.93;100.00;98981.82;2177692;82;21045;-81
2022/11/08 03:41:00;;;;;;;34.58;22.52;;;;;;;5.94;100.00;98977.44;2178056;82;21499;-80
2022/11/08 03:44:00;;;;;;;36.68;22.58;;;;;;;5.99;100.00;98977.84;2177829;82;21025;-81
2022/11/08 03:47:01;;;;;;;34.08;21.85;;;;;;;6.01;100.00;98975.09;2177820;82;20945;-82
2022/11/08 03:50:02;;;;;;;32.38;19.92;;;;;;;6.01;100.00;98979.81;2177720;82;21455;-82
2022/11/08 03:53:03;;;;;;;36.45;23.05;;;;;;;6.04;100.00;98981.33;2178112;82;20945;-83
2022/11/08 03:56:03;;;;;;;30.43;19.82;;;;;;;6.05;100.00;98983.77;2177864;82;21036;-81
2022/11/08 03:59:04;;;;;;;35.03;22.27;;;;;;;6.05;100.00;98983.77;2177796;82;21524;-81
2022/11/08 04:02:05;;;;;;;35.38;20.85;;;;;;;6.02;100.00;98987.13;2177803;82;20949;-80
2022/11/08 04:05:06;;;;;;;36.77;21.12;;;;;;;6.01;100.00;98981.59;2178386;82;21019;-79
2022/11/08 04:08:06;;;;;;;36.50;21.42;;;;;;;5.99;100.00;98979.95;2178163;82;20953;-82
2022/11/08 04:21:18;;;;;;;31.42;20.95;;;;;;;5.92;100.00;98976.77;2155067;83;21266;-81
2022/11/08 04:24:19;;;;;;;34.23;21.85;;;;;;;5.92;100.00;98975.47;2154927;83;21578;-80
2022/11/08 04:27:20;;;;;;;37.00;21.62;;;;;;;5.89;100.00;98971.36;2155270;83;20973;-79
2022/11/08 04:30:21;;;;;;;35.80;22.73;;;;;;;5.87;100.00;98980.27;2169561;82;21008;-81
2022/11/08 04:33:21;;;;;;;39.90;25.40;;;;;;;5.81;100.00;98979.53;2171087;82;21570;-81
2022/11/08 04:36:22;;;;;;;37.33;23.62;;;;;;;5.82;100.00;98982.46;2171133;82;21063;-81
2022/11/08 04:39:23;;;;;;;37.15;23.95;;;;;;;5.79;100.00;98973.66;2171057;82;20968;-81
2022/11/08 04:42:24;;;;;;;32.63;21.42;;;;;;;5.76;100.00;98964.83;2171163;82;21585;-81
2022/11/08 04:45:24;;;;;;;41.73;23.07;;;;;;;5.67;100.00;98969.95;2171115;82;20996;-81
2022/11/08 04:48:25;;;;;;;31.82;20.20;;;;;;;5.61;100.00;98970.98;2170861;82;21024;-81
2022/11/08 04:51:26;;;;;;;32.05;20.95;;;;;;;5.54;100.00;98966.02;2187978;81;20976;-79
2022/11/08 04:54:26;;;;;;;27.32;19.10;;;;;;;5.46;100.00;98964.11;2188450;81;20956;-80
2022/11/08 04:57:27;;;;;;;34.43;20.57;;;;;;;5.31;100.00;98961.16;2188560;81;20975;-81
2022/11/08 05:00:28;;;;;;;36.05;20.57;;;;;;;5.17;100.00;98964.66;2188534;81;20972;-80
2022/11/08 05:03:29;;;;;;;34.43;20.10;;;;;;;5.02;100.00;98967.66;2188666;81;20988;-80
2022/11/08 05:06:29;;;;;;;37.90;22.13;;;;;;;4.91;100.00;98959.22;2188561;81;20977;-81
2022/11/08 05:09:30;;;;;;;31.93;19.23;;;;;;;4.83;100.00;98959.41;2189001;81;21000;-82
2022/11/08 05:12:31;;;;;;;33.18;20.62;;;;;;;4.76;100.00;98967.42;2189279;81;20948;-81
2022/11/08 05:15:31;;;;;;;29.30;20.10;;;;;;;4.70;100.00;98965.84;2189189;81;21035;-82
2022/11/08 05:18:32;;;;;;;39.13;20.88;;;;;;;4.69;100.00;98961.14;2189261;81;21003;-81
2022/11/08 05:24:52;;;;;;;32.65;21.52;;;;;;;4.71;100.00;98963.11;2188961;81;21527;-82
2022/11/08 05:27:55;;;;;;;31.70;21.27;;;;;;;4.72;100.00;98959.55;2187839;81;21008;-81
2022/11/08 05:30:56;;;;;;;36.50;21.52;;;;;;;4.75;100.00;98966.23;2178089;82;21043;-82
2022/11/08 05:33:58;;;;;;;36.38;22.90;;;;;;;4.78;100.00;98968.58;2177750;82;21024;-81
2022/11/08 05:36:59;;;;;;;37.67;22.20;;;;;;;4.79;100.00;98971.03;2178161;82;21588;-82
2022/11/08 05:40:00;;;;;;;31.48;21.50;;;;;;;4.82;100.00;98971.23;2178030;82;21020;-80
2022/11/08 05:43:00;;;;;;;32.15;21.80;;;;;;;4.88;100.00;98977.66;2177891;82;21464;-81
2022/11/08 05:46:01;;;;;;;31.17;20.62;;;;;;;4.92;100.00;98972.53;2178528;82;20961;-82
2022/11/08 05:49:02;;;;;;;38.35;23.25;;;;;;;4.85;100.00;98976.98;2177884;81;21100;-81
2022/11/08 05:52:03;;;;;;;31.00;21.73;;;;;;;4.74;100.00;98982.77;2177954;82;20968;-82
2022/11/08 05:55:04;;;;;;;35.28;23.83;;;;;;;4.68;100.00;98986.73;2178509;82;21452;-82
2022/11/08 05:58:04;;;;;;;42.73;25.52;;;;;;;4.66;100.00;98985.20;2177849;82;21068;-82
2022/11/08 06:01:05;;;;;;;41.77;25.97;;;;;;;4.65;100.00;98989.58;2177981;82;20972;-81
2022/11/08 06:04:06;;;;;;;43.85;27.05;;;;;;;4.65;100.00;99003.84;2178000;82;21051;-81
2022/11/08 06:07:07;;;;;;;39.30;25.65;;;;;;;4.65;100.00;99003.84;2177810;82;20953;-81
2022/11/08 06:10:07;;;;;;;41.58;25.32;;;;;;;4.63;100.00;99011.42;2177875;82;21526;-81
2022/11/08 06:13:08;;;;;;;41.58;25.50;;;;;;;4.59;100.00;99018.67;2178535;82;21008;-80
2022/11/08 06:16:09;;;;;;;34.90;24.02;;;;;;;4.60;100.00;99013.82;2178014;82;20976;-79
2022/11/08 06:19:10;;;;;;;39.65;25.95;;;;;;;4.61;100.00;99013.34;2177638;82;21003;-81
2022/11/08 06:22:10;;;;;;;39.33;24.45;;;;;;;4.69;100.00;99018.69;2177819;82;20933;-81
2022/11/08 06:25:11;;;;;;;34.15;24.30;;;;;;;4.74;100.00;99016.01;2177799;82;21039;-79
2022/11/08 06:28:13;;;;;;;36.80;23.27;;;;;;;4.81;100.00;99027.97;2179077;81;21020;-82
2022/11/08 06:31:14;;;;;;;36.77;23.15;;;;;;;4.90;100.00;99027.16;2184952;81;21068;-79
2022/11/08 06:34:15;;;;;;;34.27;23.60;;;;;;;5.04;100.00;99018.98;2184747;81;20957;-80
2022/11/08 06:37:15;;;;;;;35.68;22.93;;;;;;;5.13;100.00;99022.53;2184624;81;21064;-80
2022/11/08 06:40:16;;;;;;;37.65;24.63;;;;;;;5.24;100.00;99018.97;2184722;81;21020;-81
2022/11/08 06:43:17;;;;;;;36.05;23.50;;;;;;;5.31;100.00;99022.66;2184765;81;20988;-81
2022/11/08 06:46:18;;;;;;;32.40;23.30;;;;;;;5.40;100.00;99024.42;2184861;81;21055;-80
2022/11/08 06:49:18;;;;;;;36.60;23.90;;;;;;;5.50;100.00;99024.41;2184821;81;21036;-80
2022/11/08 06:52:19;;;;;;;34.10;23.45;;;;;;;5.55;100.00;99026.09;2184760;81;20977;-81
2022/11/08 06:55:20;;;;;;;38.48;22.67;;;;;;;5.65;100.00;99025.58;2184750;81;21004;-81
2022/11/08 06:58:21;;;;;;;31.48;22.82;;;;;;;5.76;100.00;99032.39;2184714;81;21420;-80
2022/11/08 07:01:22;;;;;;;32.23;22.85;;;;;;;5.83;100.00;99034.28;2184697;81;21012;-80
2022/11/08 07:04:22;;;;;;;34.20;21.87;;;;;;;5.89;100.00;99032.43;2184696;81;20999;-90
2022/11/08 07:07:23;;;;;;;35.85;22.82;;;;;;;6.02;100.00;99028.72;2184736;81;21436;-83
2022/11/08 07:10:24;;;;;;;35.45;24.47;;;;;;;6.17;100.00;99035.91;2184863;81;21019;-80
2022/11/08 07:13:25;;;;;;;30.62;21.85;;;;;;;6.47;100.00;99016.59;2184767;81;20965;-81
2022/11/08 07:16:26;;;;;;;33.98;23.18;;;;;;;6.47;100.00;99016.59;2184963;81;21531;-86
2022/11/08 07:19:26;;;;;;;29.40;21.60;;;;;;;6.69;100.00;99031.47;2184804;81;20980;-87
2022/11/08 07:22:27;;;;;;;30.65;19.25;;;;;;;6.86;100.00;99030.67;2184959;81;20953;-88
2022/11/08 07:25:28;;;;;;;27.20;19.20;;;;;;;7.06;100.00;99030.04;2184809;81;20992;-89
2022/11/08 07:28:29;;;;;;;31.15;17.87;;;;;;;7.26;100.00;99027.60;2184607;81;21003;-84
2022/11/08 07:31:30;;;;;;;26.82;18.07;;;;;;;7.44;100.00;99028.88;2177606;82;21043;-88
2022/11/08 07:34:31;;;;;;;29.10;20.62;;;;;;;7.61;100.00;99027.21;2177632;82;20993;-88
2022/11/08 07:37:31;;;;;;;28.45;18.32;;;;;;;7.70;100.00;99025.80;2177649;82;21024;-81
2022/11/08 07:40:32;;;;;;;30.48;18.98;;;;;;;7.84;100.00;99032.72;2177647;82;20961;-81
2022/11/08 07:43:33;;;;;;;27.10;18.60;;;;;;;7.95;100.00;99029.84;2177948;82;21461;-83
2022/11/08 07:46:34;;;;;;;28.90;18.95;;;;;;;8.06;100.00;99021.77;2177780;82;21550;-86
2022/11/08 07:49:34;;;;;;;25.57;18.50;;;;;;;8.20;100.00;99022.47;2177792;82;20985;-84
2022/11/08 07:52:35;;;;;;;28.02;18.50;;;;;;;8.33;100.00;99021.23;2177809;82;20977;-84
2022/11/08 07:55:36;;;;;;;28.98;18.80;;;;;;;8.44;100.00;99018.36;2177939;82;20992;-88
2022/11/08 07:58:37;;;;;;;26.73;19.10;;;;;;;8.57;100.00;99020.50;2177726;82;20949;-83
2022/11/08 08:01:38;;;;;;;29.63;19.32;;;;;;;8.67;100.00;99018.57;2179262;82;20961;-81
2022/11/08 08:04:39;;;;;;;27.15;19.12;;;;;;;8.76;100.00;99017.12;2178350;82;20992;-82
2022/11/08 08:07:39;;;;;;;28.17;18.70;;;;;;;8.81;100.00;99012.25;2177820;82;21267;-83
2022/11/08 08:10:40;;;;;;;26.77;17.90;;;;;;;8.89;100.00;99017.16;2178057;82;20982;-83
2022/11/08 08:13:41;;;;;;;27.65;17.80;;;;;;;8.97;100.00;99015.38;2178171;81;21469;-78
2022/11/08 08:16:42;;;;;;;26.35;15.98;;;;;;;9.05;100.00;99014.55;2178369;82;20989;-82
2022/11/08 08:19:43;;;;;;;22.80;14.13;;;;;;;9.13;100.00;99011.94;2178112;82;20938;-83
2022/11/08 08:22:44;;;;;;;19.73;13.62;;;;;;;9.24;100.00;99002.98;2177670;82;21069;-84
2022/11/08 08:25:45;;;;;;;22.25;14.60;;;;;;;9.34;100.00;99001.83;2178046;82;20969;-83
2022/11/08 08:28:45;;;;;;;18.30;13.30;;;;;;;9.47;100.00;99006.55;2178460;81;21136;-81
2022/11/08 08:31:46;;;;;;;17.52;13.80;;;;;;;9.59;100.00;99005.21;2184955;81;20991;-83
2022/11/08 08:34:47;;;;;;;21.80;13.40;;;;;;;9.70;100.00;98998.84;2184747;81;21424;-81
2022/11/08 08:37:47;;;;;;;19.87;13.48;;;;;;;9.81;100.00;98995.87;2185181;81;21444;-81
2022/11/08 08:40:48;;;;;;;18.32;13.13;;;;;;;9.92;100.00;98996.00;2184890;81;20980;-81
2022/11/08 08:43:49;;;;;;;19.25;13.18;;;;;;;10.03;100.00;98998.24;2184741;81;20996;-82
2022/11/08 08:46:50;;;;;;;19.02;11.53;;;;;;;10.11;100.00;98995.59;2184872;81;21479;-80
2022/11/08 08:49:51;;;;;;;18.92;11.88;;;;;;;10.21;100.00;99001.94;2184992;81;21452;-82
2022/11/08 08:52:51;;;;;;;17.80;10.68;;;;;;;10.27;100.00;99001.30;2184736;81;21044;-81
2022/11/08 08:55:52;;;;;;;15.63;11.38;;;;;;;10.36;100.00;98998.16;2185450;81;20992;-82
2022/11/08 08:58:53;;;;;;;17.27;10.75;;;;;;;10.45;100.00;98995.32;2185030;81;21000;-81
2022/11/08 09:01:54;;;;;;;19.87;10.58;;;;;;;10.58;100.00;98993.94;2184953;81;21024;-80
2022/11/08 09:04:55;;;;;;;14.80;10.85;;;;;;;10.71;100.00;98992.39;2185076;81;20945;-80
2022/11/08 09:07:56;;;;;;;15.98;9.58;;;;;;;10.83;100.00;98996.23;2185030;81;21108;-80
2022/11/08 09:10:57;;;;;;;20.77;12.07;;;;;;;10.95;100.00;98997.13;2184801;81;20949;-81
2022/11/08 09:13:57;;;;;;;14.05;9.03;;;;;;;11.05;100.00;98993.28;2184818;81;21059;-81
2022/11/08 09:16:58;;;;;;;11.43;7.75;;;;;;;11.13;100.00;98988.48;2184720;81;21530;-80
2022/11/08 09:19:59;;;;;;;12.82;7.90;;;;;;;11.23;100.00;98998.72;2184863;81;21028;-81
2022/11/08 09:23:00;;;;;;;12.33;8.00;;;;;;;11.31;100.00;98993.41;2185254;81;21032;-82
2022/11/08 09:26:00;;;;;;;11.65;7.47;;;;;;;11.42;100.00;98990.35;2184881;81;20993;-81
2022/11/08 09:29:01;;;;;;;11.90;7.30;;;;;;;11.53;100.00;98994.37;2185805;81;20942;-82
2022/11/08 09:32:02;;;;;;;11.57;6.50;;;;;;;11.63;100.00;99000.17;2178386;82;21489;-87
2022/11/08 09:35:03;;;;;;;12.25;6.65;;;;;;;11.69;100.00;99004.18;2178103;82;21009;-84
2022/11/08 09:38:04;;;;;;;13.68;6.90;;;;;;;11.78;100.00;98999.67;2177946;81;20996;-87
2022/11/08 09:41:04;;;;;;;9.60;6.20;;;;;;;11.88;100.00;99003.37;2177811;82;21494;-80
2022/11/08 09:44:05;;;;;;;8.78;6.22;;;;;;;11.97;100.00;99004.91;2177803;82;21016;-80
2022/11/08 09:47:06;;;;;;;8.40;6.17;;;;;;;12.06;100.00;99006.44;2177850;82;20996;-80
2022/11/08 09:50:07;;;;;;;11.00;6.22;;;;;;;12.15;100.00;99012.41;2177968;81;20922;-80
2022/11/08 09:53:08;;;;;;;9.25;6.60;;;;;;;12.24;100.00;99000.32;2177718;81;20985;-80
2022/11/08 09:56:08;;;;;;;8.20;5.90;;;;;;;12.31;100.00;99005.66;2177864;82;21543;-85
2022/11/08 09:59:09;;;;;;;8.95;4.90;;;;;;;12.40;100.00;99004.55;2177849;81;20949;-82
2022/11/08 10:02:10;;;;;;;7.97;5.28;;;;;;;12.47;100.00;98998.08;2177862;81;20992;-82
2022/11/08 10:05:11;;;;;;;9.48;4.72;;;;;;;12.53;100.00;98994.22;2177952;82;20934;-84
2022/11/08 10:08:12;;;;;;;8.78;5.70;;;;;;;12.60;100.00;98994.27;2177818;82;21028;-82
2022/11/08 10:11:13;;;;;;;9.33;5.45;;;;;;;12.67;100.00;98995.17;2177847;82;21001;-83
2022/11/08 10:14:14;;;;;;;7.65;4.67;;;;;;;12.74;100.00;98992.62;2178431;82;21003;-83
2022/11/08 10:17:15;;;;;;;8.83;5.37;;;;;;;12.83;100.00;98992.00;2178239;82;21025;-83
2022/11/08 10:20:15;;;;;;;8.85;4.83;;;;;;;12.88;100.00;98985.16;2178128;82;21583;-82
2022/11/08 10:23:16;;;;;;;7.75;4.15;;;;;;;12.93;100.00;98975.42;2177885;82;21036;-82
2022/11/08 10:26:17;;;;;;;7.78;4.30;;;;;;;12.95;100.00;98962.89;2178807;82;21063;-79
2022/11/08 10:29:18;;;;;;;6.67;4.60;;;;;;;12.99;100.00;98963.66;2179344;81;20988;-80
2022/11/08 10:32:18;;;;;;;8.10;4.78;;;;;;;13.04;100.00;98962.58;2184837;81;20995;-83
2022/11/08 10:35:19;;;;;;;7.28;4.83;;;;;;;13.09;100.00;98968.09;2184824;81;20929;-82
2022/11/08 10:38:20;;;;;;;6.55;4.85;;;;;;;13.13;100.00;98961.94;2184671;81;21000;-82
2022/11/08 10:41:21;;;;;;;5.53;4.75;;;;;;;13.15;100.00;98955.98;2184784;81;21448;-82
2022/11/08 10:44:23;;;;;;;9.18;5.28;;;;;;;13.19;100.00;98963.85;2184774;81;21019;-82
2022/11/08 10:47:24;;;;;;;9.73;5.87;;;;;;;13.24;100.00;98960.14;2184873;81;21031;-82
2022/11/08 10:50:25;;;;;;;8.65;6.03;;;;;;;13.28;100.00;98962.71;2184751;81;21072;-82
2022/11/08 10:53:26;;;;;;;6.03;5.25;;;;;;;13.32;100.00;98957.37;2184650;81;21031;-82
2022/11/08 10:56:27;;;;;;;12.58;6.20;;;;;;;13.35;100.00;98959.64;2184831;81;21562;-84
2022/11/08 10:59:27;;;;;;;9.48;5.15;;;;;;;13.42;100.00;98960.98;2184917;81;21027;-82
2022/11/08 11:02:28;;;;;;;6.65;4.50;;;;;;;13.45;100.00;98958.48;2184763;81;20974;-83
2022/11/08 11:05:29;;;;;;;8.25;4.10;;;;;;;13.48;100.00;98951.52;2184774;81;21008;-82
2022/11/08 11:08:30;;;;;;;7.17;4.42;;;;;;;13.51;100.00;98953.75;2184610;81;21032;-82
2022/11/08 11:11:31;;;;;;;9.00;4.70;;;;;;;13.54;100.00;98945.50;2184781;81;21009;-83
2022/11/08 11:14:31;;;;;;;9.78;5.33;;;;;;;13.58;100.00;98950.67;2184904;81;21351;-83
2022/11/08 11:17:32;;;;;;;8.45;5.72;;;;;;;13.63;100.00;98948.29;2184927;81;21024;-82
2022/11/08 11:20:33;;;;;;;7.37;4.95;;;;;;;13.67;100.00;98941.63;2184995;81;20994;-83
2022/11/08 11:23:34;;;;;;;7.53;5.58;;;;;;;13.70;100.00;98945.67;2184863;81;21059;-82
2022/11/08 11:26:35;;;;;;;10.35;4.90;;;;;;;13.70;100.00;98939.91;2184571;81;20976;-82
2022/11/08 11:29:35;;;;;;;12.13;6.00;;;;;;;13.71;100.00;98945.48;2184662;81;21344;-84
2022/11/08 11:32:38;;;;;;;10.72;6.53;;;;;;;13.70;100.00;98943.05;2177800;82;21000;-84
2022/11/08 11:35:39;;;;;;;9.55;6.00;;;;;;;13.72;100.00;98947.63;2178184;82;20984;-83
2022/11/08 11:38:40;;;;;;;11.22;5.92;;;;;;;13.72;100.00;98939.74;2177936;82;21007;-85
2022/11/08 11:41:40;;;;;;;6.70;4.67;;;;;;;13.74;100.00;98935.09;2177813;82;21547;-83
2022/11/08 11:44:41;;;;;;;12.73;6.60;;;;;;;13.75;100.00;98932.77;2177988;82;21123;-83
2022/11/08 11:47:42;;;;;;;11.55;7.03;;;;;;;13.77;100.00;98935.50;2178083;81;21051;-83
2022/11/08 11:50:43;;;;;;;9.48;5.83;;;;;;;13.79;100.00;98928.72;2178061;81;21551;-83
2022/11/08 11:53:44;;;;;;;14.70;5.83;;;;;;;13.79;100.00;98934.80;2177902;82;21007;-83
2022/11/08 11:56:45;;;;;;;9.20;6.28;;;;;;;13.79;100.00;98929.53;2177845;82;20992;-82
2022/11/08 11:59:46;;;;;;;13.25;7.00;;;;;;;13.79;100.00;98926.90;2178182;82;21016;-81
2022/11/08 12:02:47;;;;;;;11.28;7.40;;;;;;;13.80;100.00;98922.45;2177880;82;21024;-82
2022/11/08 12:05:48;;;;;;;9.48;6.10;;;;;;;13.82;100.00;98925.72;2178431;82;21515;-81
2022/11/08 12:08:49;;;;;;;7.95;5.42;;;;;;;13.82;100.00;98926.53;2177718;82;21063;-83
2022/11/08 12:11:50;;;;;;;12.05;8.93;;;;;;;13.83;100.00;98924.71;2178223;81;21567;-79
2022/11/08 12:14:51;;;;;;;16.82;9.28;;;;;;;13.81;100.00;98924.91;2178373;82;21037;-82
2022/11/08 12:17:52;;;;;;;12.70;7.85;;;;;;;13.80;100.00;98918.00;2178225;82;21051;-82
2022/11/08 12:20:53;;;;;;;10.23;6.25;;;;;;;13.79;100.00;98919.01;2178028;82;20969;-83
2022/11/08 12:23:54;;;;;;;8.25;5.20;;;;;;;13.79;100.00;98920.83;2177973;82;20992;-85
2022/11/08 12:26:54;;;;;;;13.55;6.33;;;;;;;13.77;100.00;98923.66;2177970;82;21040;-82
2022/11/08 12:29:55;;;;;;;14.40;5.00;;;;;;;13.74;100.00;98917.98;2178924;81;20988;-82
2022/11/08 12:32:56;;;;;;;6.47;4.60;;;;;;;13.71;100.00;98915.22;2178262;82;21107;-82
2022/11/08 12:35:57;;;;;;;16.95;8.03;;;;;;;13.72;100.00;98916.06;2177857;82;21464;-83
2022/11/08 12:38:58;;;;;;;16.27;10.35;;;;;;;13.71;100.00;98917.84;2177845;82;21335;-82
2022/11/08 12:41:59;;;;;;;9.10;6.60;;;;;;;13.70;100.00;98915.41;2177907;82;20933;-83
2022/11/08 12:45:00;;;;;;;10.48;6.95;;;;;;;13.68;100.00;98914.30;2178441;82;21036;-83
2022/11/08 12:48:00;;;;;;;12.15;5.05;;;;;;;13.64;100.00;98915.70;2177990;81;20957;-83
2022/11/08 12:51:01;;;;;;;9.50;7.10;;;;;;;13.60;100.00;98912.63;2178249;81;20956;-83
2022/11/08 12:54:02;;;;;;;28.45;16.25;;;;;;;13.55;100.00;98908.47;2178062;82;21000;-82
2022/11/08 12:57:03;;;;;;;26.95;15.53;;;;;;;13.51;100.00;98905.91;2177927;82;20993;-84
2022/11/08 13:00:04;;;;;;;18.10;10.72;;;;;;;13.48;100.00;98903.67;2177803;82;21066;-83
2022/11/08 13:03:05;;;;;;;19.77;9.48;;;;;;;13.48;100.00;98904.17;2177901;82;20960;-82
2022/11/08 13:06:05;;;;;;;14.58;7.53;;;;;;;13.48;100.00;98897.59;2177874;82;21028;-83
2022/11/08 13:09:06;;;;;;;21.40;9.10;;;;;;;13.47;100.00;98903.36;2177769;82;20949;-82
2022/11/08 13:12:07;;;;;;;17.12;8.60;;;;;;;13.48;100.00;98896.28;2177566;82;21480;-83
2022/11/08 13:15:08;;;;;;;14.98;7.00;;;;;;;13.48;100.00;98889.70;2177756;82;21000;-82
2022/11/08 13:18:09;;;;;;;8.45;5.10;;;;;;;13.49;100.00;98892.14;2177875;81;21535;-81
2022/11/08 13:21:09;;;;;;;8.95;4.37;;;;;;;13.48;100.00;98891.02;2177952;81;21032;-83
2022/11/08 13:24:10;;;;;;;10.13;4.33;;;;;;;13.44;100.00;98884.03;2177899;81;21495;-82
2022/11/08 13:27:11;;;;;;;9.68;3.98;;;;;;;13.41;100.00;98884.91;2177911;81;21472;-82
2022/11/08 13:30:12;;;;;;;6.30;3.30;;;;;;;13.40;100.00;98887.23;2178234;81;21032;-82
2022/11/08 13:33:13;;;;;;;9.25;4.08;;;;;;;13.40;100.00;98879.34;2184988;81;21060;-83
2022/11/08 13:36:14;;;;;;;5.10;4.17;;;;;;;13.40;100.00;98886.72;2184854;81;21016;-82
2022/11/08 13:39:15;;;;;;;5.50;3.90;;;;;;;13.40;100.00;98884.09;2184992;81;21002;-83
2022/11/08 13:42:16;;;;;;;9.15;6.67;;;;;;;13.38;100.00;98886.92;2184862;81;20992;-82
2022/11/08 13:45:16;;;;;;;12.37;6.65;;;;;;;13.37;100.00;98886.61;2184664;81;21020;-82
2022/11/08 13:48:17;;;;;;;8.65;4.40;;;;;;;13.35;100.00;98882.56;2185216;81;20957;-83
2022/11/08 13:51:18;;;;;;;11.10;5.62;;;;;;;13.26;100.00;98871.38;2184750;81;21051;-83
2022/11/08 13:54:19;;;;;;;6.47;4.30;;;;;;;13.30;100.00;98887.06;2184729;81;20980;-83
2022/11/08 13:57:20;;;;;;;7.60;4.83;;;;;;;13.28;100.00;98889.08;2184859;81;21015;-84
2022/11/08 14:00:20;;;;;;;7.15;4.87;;;;;;;13.24;100.00;98885.20;2184707;81;21013;-84
2022/11/08 14:03:21;;;;;;;13.15;6.83;;;;;;;13.22;100.00;98887.72;2184903;81;21019;-83
2022/11/08 14:06:22;;;;;;;8.78;6.30;;;;;;;13.19;100.00;98886.30;2184832;81;21019;-84
2022/11/08 14:09:23;;;;;;;11.73;7.05;;;;;;;13.16;100.00;98877.42;2143331;81;21054;-83
2022/11/08 14:12:24;;;;;;;9.53;5.87;;;;;;;13.13;100.00;98886.20;2113494;83;21509;-83
2022/11/08 14:15:24;;;;;;;9.95;5.30;;;;;;;13.07;100.00;98878.09;2133442;82;21010;-84
2022/11/08 14:18:25;;;;;;;8.00;4.60;;;;;;;13.01;100.00;98878.85;2150034;82;20955;-83